createdAt,value
2022-09-18T00:01:37.823Z,9.11
2022-09-18T00:04:06.749Z,9.20
2022-09-18T00:06:35.304Z,9.31
2022-09-18T00:09:02.883Z,9.31
2022-09-18T00:11:33.151Z,9.35
2022-09-18T00:14:00.127Z,9.47
2022-09-18T00:16:27.034Z,9.29
2022-09-18T00:18:53.878Z,9.15
2022-09-18T00:21:22.379Z,9.29
2022-09-18T00:23:49.203Z,9.24
2022-09-18T00:26:17.094Z,9.17
2022-09-18T00:28:44.267Z,9.12
2022-09-18T00:31:12.576Z,9.13
2022-09-18T00:33:40.193Z,9.16
2022-09-18T00:36:09.791Z,9.30
2022-09-18T00:38:36.736Z,9.38
2022-09-18T00:41:04.834Z,9.18
2022-09-18T00:43:32.932Z,9.13
2022-09-18T00:46:03.024Z,9.28
2022-09-18T00:48:57.688Z,9.28
2022-09-18T00:51:25.669Z,9.29
2022-09-18T00:53:59.953Z,9.28
2022-09-18T00:56:27.211Z,9.17
2022-09-18T00:58:54.034Z,9.15
2022-09-18T01:01:20.824Z,9.05
2022-09-18T01:03:47.866Z,9.02
2022-09-18T01:06:16.660Z,9.00
2022-09-18T01:09:00.629Z,9.06
2022-09-18T01:11:35.227Z,9.28
2022-09-18T01:14:07.830Z,9.17
2022-09-18T01:16:53.434Z,9.31
2022-09-18T01:19:32.062Z,9.45
2022-09-18T01:22:17.554Z,9.43
2022-09-18T01:24:45.198Z,9.50
2022-09-18T01:27:27.860Z,9.48
2022-09-18T01:30:14.882Z,9.52
2022-09-18T01:32:46.170Z,9.58
2022-09-18T01:35:40.698Z,9.52
2022-09-18T01:38:11.599Z,9.56
2022-09-18T01:40:40.726Z,9.60
2022-09-18T01:43:09.325Z,9.65
2022-09-18T01:45:39.187Z,9.69
2022-09-18T01:48:07.894Z,9.58
2022-09-18T01:50:39.887Z,9.63
2022-09-18T01:53:13.570Z,9.61
2022-09-18T01:55:41.179Z,9.58
2022-09-18T01:58:11.579Z,9.54
2022-09-18T02:00:40.908Z,9.63
2022-09-18T02:03:20.822Z,9.57
2022-09-18T02:06:00.340Z,9.67
2022-09-18T02:08:30.071Z,9.61
2022-09-18T02:11:03.354Z,9.68
2022-09-18T02:13:36.713Z,9.65
2022-09-18T02:16:06.628Z,9.65
2022-09-18T02:18:36.825Z,9.63
2022-09-18T02:21:07.950Z,9.67
2022-09-18T02:23:36.319Z,9.61
2022-09-18T02:26:05.747Z,9.65
2022-09-18T02:28:33.757Z,9.56
2022-09-18T02:31:01.353Z,9.64
2022-09-18T02:33:37.322Z,9.66
2022-09-18T02:36:07.449Z,9.65
2022-09-18T02:38:45.278Z,9.60
2022-09-18T02:41:17.376Z,9.56
2022-09-18T02:44:09.094Z,9.46
2022-09-18T02:46:56.571Z,9.56
2022-09-18T02:49:23.447Z,9.46
2022-09-18T02:51:53.920Z,9.54
2022-09-18T02:54:26.857Z,9.53
2022-09-18T02:56:57.311Z,9.45
2022-09-18T02:59:30.257Z,9.52
2022-09-18T03:01:59.062Z,9.41
2022-09-18T03:04:27.404Z,9.48
2022-09-18T03:06:54.400Z,9.35
2022-09-18T03:09:22.246Z,9.42
2022-09-18T03:11:49.979Z,9.37
2022-09-18T03:14:16.798Z,9.41
2022-09-18T03:16:43.765Z,9.39
2022-09-18T03:19:11.876Z,9.38
2022-09-18T03:21:39.279Z,9.31
2022-09-18T03:24:06.434Z,9.43
2022-09-18T03:26:33.286Z,9.38
2022-09-18T03:29:00.084Z,9.34
2022-09-18T03:31:27.723Z,9.29
2022-09-18T03:33:54.550Z,9.24
2022-09-18T03:36:21.382Z,9.33
2022-09-18T03:38:48.428Z,9.19
2022-09-18T03:41:15.402Z,9.24
2022-09-18T03:43:42.259Z,9.28
2022-09-18T03:46:09.275Z,9.26
2022-09-18T03:48:36.132Z,9.25
2022-09-18T03:51:03.111Z,9.15
2022-09-18T03:53:30.143Z,9.07
2022-09-18T03:55:57.681Z,9.11
2022-09-18T03:58:24.526Z,9.08
2022-09-18T04:00:51.531Z,9.16
2022-09-18T04:03:18.354Z,9.00
2022-09-18T04:05:47.766Z,8.88
2022-09-18T04:08:14.743Z,8.61
2022-09-18T04:10:41.500Z,8.70
2022-09-18T04:13:08.277Z,8.87
2022-09-18T04:15:35.435Z,8.95
2022-09-18T04:18:02.248Z,8.89
2022-09-18T04:20:29.122Z,8.92
2022-09-18T04:22:56.085Z,8.96
2022-09-18T04:25:22.871Z,8.99
2022-09-18T04:27:49.668Z,9.07
2022-09-18T04:30:16.702Z,9.08
2022-09-18T04:32:44.559Z,8.99
2022-09-18T04:35:11.409Z,8.99
2022-09-18T04:37:38.481Z,8.95
2022-09-18T04:40:06.524Z,8.92
2022-09-18T04:42:33.392Z,8.96
2022-09-18T04:45:00.564Z,9.04
2022-09-18T04:47:27.342Z,9.08
2022-09-18T04:49:54.196Z,9.07
2022-09-18T04:52:21.185Z,9.08
2022-09-18T04:54:47.952Z,9.11
2022-09-18T04:57:14.791Z,9.00
2022-09-18T04:59:41.755Z,9.00
2022-09-18T05:02:11.434Z,8.92
2022-09-18T05:04:38.301Z,8.92
2022-09-18T05:07:05.334Z,8.92
2022-09-18T05:09:32.151Z,8.92
2022-09-18T05:11:58.987Z,8.81
2022-09-18T05:14:26.032Z,8.89
2022-09-18T05:16:52.849Z,8.89
2022-09-18T05:19:19.716Z,8.95
2022-09-18T05:21:48.770Z,8.83
2022-09-18T05:24:15.534Z,8.81
2022-09-18T05:26:42.306Z,8.88
2022-09-18T05:29:09.305Z,8.98
2022-09-18T05:31:36.137Z,9.00
2022-09-18T05:34:03.035Z,9.03
2022-09-18T05:36:30.011Z,8.94
2022-09-18T05:38:57.054Z,9.05
2022-09-18T05:41:23.835Z,9.07
2022-09-18T05:43:50.882Z,9.12
2022-09-18T05:46:17.983Z,9.04
2022-09-18T05:48:45.156Z,9.06
2022-09-18T05:51:12.154Z,9.00
2022-09-18T05:53:38.948Z,9.07
2022-09-18T05:56:05.764Z,9.10
2022-09-18T05:58:32.822Z,9.05
2022-09-18T06:01:01.701Z,8.98
2022-09-18T06:03:28.513Z,9.07
2022-09-18T06:05:55.635Z,9.09
2022-09-18T06:08:22.960Z,9.17
2022-09-18T06:10:50.188Z,9.12
2022-09-18T06:13:18.017Z,9.19
2022-09-18T06:15:48.417Z,9.26
2022-09-18T06:18:15.344Z,9.13
2022-09-18T06:20:42.933Z,9.23
2022-09-18T06:23:09.753Z,9.33
2022-09-18T06:25:36.703Z,9.39
2022-09-18T06:28:04.406Z,9.48
2022-09-18T06:30:32.594Z,9.38
2022-09-18T06:33:06.030Z,9.46
2022-09-18T06:35:33.840Z,9.47
2022-09-18T06:38:03.156Z,9.41
2022-09-18T06:40:31.117Z,9.32
2022-09-18T06:42:58.653Z,9.45
2022-09-18T06:45:26.248Z,9.62
2022-09-18T06:47:56.391Z,9.78
2022-09-18T06:50:23.898Z,10.08
2022-09-18T06:52:51.172Z,10.43
2022-09-18T06:55:18.541Z,10.54
2022-09-18T06:57:55.371Z,10.74
2022-09-18T07:00:23.222Z,10.57
2022-09-18T07:02:57.339Z,10.77
2022-09-18T07:05:26.018Z,10.87
2022-09-18T07:07:53.215Z,11.16
2022-09-18T07:10:20.107Z,11.27
2022-09-18T07:12:49.096Z,11.31
2022-09-18T07:15:17.513Z,11.70
2022-09-18T07:17:44.576Z,11.75
2022-09-18T07:20:12.103Z,11.71
2022-09-18T07:22:43.709Z,11.39
2022-09-18T07:25:13.453Z,11.02
2022-09-18T07:27:40.426Z,11.30
2022-09-18T07:30:07.432Z,11.59
2022-09-18T07:32:35.302Z,12.28
2022-09-18T07:35:02.320Z,12.59
2022-09-18T07:37:29.455Z,12.85
2022-09-18T07:39:56.303Z,12.98
2022-09-18T07:42:23.410Z,13.04
2022-09-18T07:44:50.211Z,13.36
2022-09-18T07:47:17.027Z,12.94
2022-09-18T07:49:44.012Z,13.23
2022-09-18T07:52:10.990Z,14.78
2022-09-18T07:54:38.030Z,15.82
2022-09-18T07:57:05.078Z,16.54
2022-09-18T07:59:31.839Z,16.96
2022-09-18T08:01:58.747Z,17.53
2022-09-18T08:04:26.082Z,18.17
2022-09-18T08:06:53.455Z,19.22
2022-09-18T08:09:20.577Z,19.41
2022-09-18T08:11:47.800Z,19.62
2022-09-18T08:14:16.292Z,20.13
2022-09-18T08:16:43.318Z,20.52
2022-09-18T08:19:10.412Z,20.62
2022-09-18T08:21:37.710Z,21.37
2022-09-18T08:24:04.718Z,21.48
2022-09-18T08:26:31.754Z,22.23
2022-09-18T08:28:58.518Z,22.58
2022-09-18T08:31:25.322Z,22.96
2022-09-18T08:33:52.805Z,22.50
2022-09-18T08:36:19.626Z,22.39
2022-09-18T08:38:46.510Z,22.32
2022-09-18T08:41:13.476Z,21.52
2022-09-18T08:43:40.188Z,21.24
2022-09-18T08:46:19.454Z,20.05
2022-09-18T08:48:58.759Z,18.15
2022-09-18T08:51:34.703Z,17.04
2022-09-18T08:54:11.407Z,16.72
2022-09-18T08:56:39.432Z,17.10
2022-09-18T08:59:11.608Z,18.39
2022-09-18T09:01:52.177Z,18.00
2022-09-18T09:04:22.980Z,19.51
2022-09-18T09:06:56.347Z,19.99
2022-09-18T09:09:42.555Z,20.07
2022-09-18T09:12:09.397Z,19.74
2022-09-18T09:14:57.497Z,18.54
2022-09-18T09:17:42.986Z,18.54
2022-09-18T09:20:23.417Z,17.86
2022-09-18T09:22:55.883Z,17.31
2022-09-18T09:25:27.122Z,17.29
2022-09-18T09:27:59.051Z,17.42
2022-09-18T09:30:29.630Z,18.45
2022-09-18T09:33:01.629Z,18.57
2022-09-18T09:35:35.498Z,19.11
2022-09-18T09:38:07.069Z,18.97
2022-09-18T09:40:39.591Z,19.92
2022-09-18T09:43:21.779Z,21.61
2022-09-18T09:45:51.070Z,21.42
2022-09-18T09:48:30.569Z,21.23
2022-09-18T09:50:57.556Z,20.46
2022-09-18T09:53:25.997Z,19.16
2022-09-18T09:56:02.785Z,18.66
2022-09-18T09:58:29.871Z,18.03
2022-09-18T10:01:02.709Z,18.53
2022-09-18T10:03:43.435Z,18.51
2022-09-18T10:06:13.316Z,18.34
2022-09-18T10:08:43.069Z,17.73
2022-09-18T10:11:12.211Z,18.06
2022-09-18T10:13:42.049Z,17.59
2022-09-18T10:16:29.120Z,15.65
2022-09-18T10:18:57.060Z,15.17
2022-09-18T10:21:27.184Z,14.56
2022-09-18T10:24:06.029Z,14.06
2022-09-18T10:26:48.401Z,13.87
2022-09-18T10:29:17.363Z,14.12
2022-09-18T10:31:57.545Z,15.22
2022-09-18T10:34:42.831Z,16.53
2022-09-18T10:37:28.373Z,16.73
2022-09-18T10:39:57.769Z,16.69
2022-09-18T10:42:26.671Z,16.13
2022-09-18T10:44:59.294Z,15.48
2022-09-18T10:47:30.560Z,16.01
2022-09-18T10:50:02.205Z,16.52
2022-09-18T10:52:32.398Z,17.48
2022-09-18T10:55:05.595Z,17.65
2022-09-18T10:57:38.687Z,17.03
2022-09-18T11:00:20.663Z,16.98
2022-09-18T11:02:49.788Z,16.86
2022-09-18T11:05:43.179Z,16.77
2022-09-18T11:08:31.284Z,16.02
2022-09-18T11:11:09.222Z,16.25
2022-09-18T11:13:55.687Z,17.14
2022-09-18T11:16:24.179Z,17.71
2022-09-18T11:19:10.246Z,17.70
2022-09-18T11:21:45.365Z,17.04
2022-09-18T11:24:38.872Z,15.50
2022-09-18T11:27:21.842Z,14.55
2022-09-18T11:29:48.982Z,14.79
2022-09-18T11:32:20.234Z,14.66
2022-09-18T11:34:49.066Z,15.30
2022-09-18T11:37:30.590Z,16.87
2022-09-18T11:40:00.787Z,17.79
2022-09-18T11:42:29.257Z,18.62
2022-09-18T11:45:06.561Z,18.82
2022-09-18T11:47:43.006Z,18.79
2022-09-18T11:50:11.988Z,17.79
2022-09-18T11:52:42.696Z,16.44
2022-09-18T11:55:17.050Z,16.18
2022-09-18T11:57:56.291Z,16.05
2022-09-18T12:00:24.011Z,14.82
2022-09-18T12:02:51.182Z,14.35
2022-09-18T12:05:24.630Z,13.94
2022-09-18T12:07:57.898Z,13.31
2022-09-18T12:10:43.587Z,13.10
2022-09-18T12:13:13.262Z,13.26
2022-09-18T12:15:42.799Z,13.95
2022-09-18T12:18:20.134Z,14.77
2022-09-18T12:20:47.168Z,15.28
2022-09-18T12:23:21.987Z,15.38
2022-09-18T12:25:48.963Z,15.32
2022-09-18T12:28:21.491Z,15.27
2022-09-18T12:30:55.955Z,15.18
2022-09-18T12:33:22.890Z,14.92
2022-09-18T12:36:01.327Z,15.16
2022-09-18T12:38:43.591Z,15.28
2022-09-18T12:41:19.938Z,15.28
2022-09-18T12:44:14.531Z,15.03
2022-09-18T12:47:00.694Z,14.77
2022-09-18T12:49:46.917Z,14.71
2022-09-18T12:52:25.817Z,14.48
2022-09-18T12:54:54.451Z,14.36
2022-09-18T12:57:40.920Z,14.16
2022-09-18T13:00:13.337Z,13.92
2022-09-18T13:02:54.662Z,13.67
2022-09-18T13:05:24.422Z,13.65
2022-09-18T13:08:03.298Z,13.88
2022-09-18T13:10:37.506Z,13.90
2022-09-18T13:13:10.922Z,14.07
2022-09-18T13:15:44.502Z,14.00
2022-09-18T13:18:21.131Z,14.19
2022-09-18T13:20:48.257Z,14.65
2022-09-18T13:23:19.420Z,14.45
2022-09-18T13:25:48.045Z,14.16
2022-09-18T13:28:17.246Z,14.33
2022-09-18T13:30:44.866Z,14.20
2022-09-18T13:33:25.061Z,14.27
2022-09-18T13:36:01.215Z,14.21
2022-09-18T13:38:28.650Z,14.09
2022-09-18T13:41:02.879Z,14.15
2022-09-18T13:43:29.975Z,14.03
2022-09-18T13:46:00.214Z,13.61
2022-09-18T13:48:34.585Z,13.46
2022-09-18T13:51:04.449Z,13.17
2022-09-18T13:53:32.698Z,12.88
2022-09-18T13:55:59.843Z,12.88
2022-09-18T13:58:35.773Z,13.07
2022-09-18T14:01:10.120Z,13.42
2022-09-18T14:03:38.665Z,13.35
2022-09-18T14:06:23.990Z,13.18
2022-09-18T14:08:51.022Z,12.95
2022-09-18T14:11:22.805Z,13.12
2022-09-18T14:13:54.151Z,13.12
2022-09-18T14:16:22.402Z,13.30
2022-09-18T14:18:49.189Z,13.22
2022-09-18T14:21:18.722Z,13.20
2022-09-18T14:23:46.148Z,13.04
2022-09-18T14:26:31.068Z,12.97
2022-09-18T14:29:00.496Z,13.27
2022-09-18T14:31:28.865Z,13.51
2022-09-18T14:34:01.430Z,13.62
2022-09-18T14:36:42.256Z,13.21
2022-09-18T14:39:24.154Z,13.17
2022-09-18T14:41:53.387Z,13.30
2022-09-18T14:44:21.257Z,13.22
2022-09-18T14:46:55.850Z,13.02
2022-09-18T14:49:36.499Z,13.09
2022-09-18T14:52:04.917Z,13.13
2022-09-18T14:54:40.395Z,12.50
2022-09-18T14:57:13.190Z,12.51
2022-09-18T14:59:40.574Z,12.19
2022-09-18T15:02:19.723Z,12.17
2022-09-18T15:04:46.731Z,12.23
2022-09-18T15:07:18.028Z,12.18
2022-09-18T15:09:45.766Z,11.75
2022-09-18T15:12:18.718Z,11.98
2022-09-18T15:14:47.722Z,12.21
2022-09-18T15:17:19.952Z,12.19
2022-09-18T15:19:57.833Z,12.32
2022-09-18T15:22:25.389Z,12.26
2022-09-18T15:24:52.183Z,12.24
2022-09-18T15:27:20.351Z,11.82
2022-09-18T15:30:04.382Z,12.02
2022-09-18T15:32:38.307Z,12.27
2022-09-18T15:35:08.718Z,12.40
2022-09-18T15:37:38.393Z,12.36
2022-09-18T15:40:07.868Z,12.08
2022-09-18T15:42:36.086Z,11.83
2022-09-18T15:45:03.950Z,11.55
2022-09-18T15:47:36.514Z,11.51
2022-09-18T15:50:12.774Z,11.60
2022-09-18T15:52:52.126Z,11.51
2022-09-18T15:55:18.971Z,11.64
2022-09-18T15:57:48.735Z,11.84
2022-09-18T16:00:22.962Z,11.63
2022-09-18T16:02:52.241Z,11.53
2022-09-18T16:05:19.768Z,11.62
2022-09-18T16:07:52.823Z,11.60
2022-09-18T16:10:35.192Z,11.96
2022-09-18T16:13:02.779Z,11.99
2022-09-18T16:15:30.125Z,12.12
2022-09-18T16:17:59.532Z,11.94
2022-09-18T16:20:28.471Z,12.10
2022-09-18T16:23:11.367Z,11.93
2022-09-18T16:25:43.021Z,11.27
2022-09-18T16:28:20.005Z,11.12
2022-09-18T16:30:47.374Z,11.18
2022-09-18T16:33:17.471Z,11.17
2022-09-18T16:35:44.555Z,11.45
2022-09-18T16:38:11.326Z,11.15
2022-09-18T16:40:40.623Z,11.26
2022-09-18T16:43:07.459Z,11.40
2022-09-18T16:45:34.302Z,11.19
2022-09-18T16:48:01.324Z,10.94
2022-09-18T16:50:28.259Z,10.84
2022-09-18T16:52:58.499Z,10.74
2022-09-18T16:55:28.934Z,10.75
2022-09-18T16:57:56.412Z,10.81
2022-09-18T17:00:24.142Z,10.79
2022-09-18T17:02:52.322Z,10.49
2022-09-18T17:05:19.439Z,10.57
2022-09-18T17:07:46.227Z,10.58
2022-09-18T17:10:13.455Z,10.31
2022-09-18T17:12:41.223Z,10.02
2022-09-18T17:15:08.842Z,9.89
2022-09-18T17:17:35.982Z,10.03
2022-09-18T17:20:04.933Z,9.71
2022-09-18T17:22:32.031Z,9.84
2022-09-18T17:24:59.383Z,9.90
2022-09-18T17:27:26.518Z,9.70
2022-09-18T17:29:53.299Z,9.38
2022-09-18T17:32:20.075Z,9.17
2022-09-18T17:34:47.251Z,9.19
2022-09-18T17:37:13.999Z,9.21
2022-09-18T17:39:40.818Z,9.23
2022-09-18T17:42:07.987Z,8.84
2022-09-18T17:44:35.456Z,8.85
2022-09-18T17:47:02.322Z,8.88
2022-09-18T17:49:32.784Z,8.86
2022-09-18T17:51:59.588Z,8.83
2022-09-18T17:54:26.490Z,8.67
2022-09-18T17:56:53.565Z,8.49
2022-09-18T17:59:20.306Z,8.38
2022-09-18T18:01:48.796Z,8.52
2022-09-18T18:04:16.043Z,8.78
2022-09-18T18:06:43.027Z,8.59
2022-09-18T18:09:10.128Z,8.48
2022-09-18T18:11:37.795Z,8.53
2022-09-18T18:14:05.460Z,8.50
2022-09-18T18:16:34.445Z,8.52
2022-09-18T18:19:03.763Z,8.70
2022-09-18T18:21:31.741Z,8.72
2022-09-18T18:24:03.861Z,8.59
2022-09-18T18:26:31.191Z,8.56
2022-09-18T18:28:58.003Z,8.52
2022-09-18T18:31:28.059Z,8.60
2022-09-18T18:33:55.743Z,8.54
2022-09-18T18:36:23.945Z,8.48
2022-09-18T18:38:51.687Z,8.53
2022-09-18T18:41:19.586Z,8.41
2022-09-18T18:43:46.395Z,8.37
2022-09-18T18:46:15.635Z,8.28
2022-09-18T18:48:43.366Z,8.19
2022-09-18T18:51:11.815Z,8.10
2022-09-18T18:53:38.676Z,8.12
2022-09-18T18:56:12.695Z,7.90
2022-09-18T18:58:40.050Z,7.91
2022-09-18T19:01:14.888Z,7.90
2022-09-18T19:03:44.230Z,7.55
2022-09-18T19:06:11.428Z,7.63
2022-09-18T19:08:38.506Z,7.81
2022-09-18T19:11:06.475Z,7.81
2022-09-18T19:13:41.342Z,7.85
2022-09-18T19:16:09.603Z,7.92
2022-09-18T19:18:36.986Z,7.96
2022-09-18T19:21:04.139Z,7.99
2022-09-18T19:23:31.191Z,8.16
2022-09-18T19:26:00.097Z,8.25
2022-09-18T19:28:30.066Z,8.20
2022-09-18T19:31:06.101Z,7.86
2022-09-18T19:33:33.570Z,7.65
2022-09-18T19:36:06.779Z,7.67
2022-09-18T19:38:36.659Z,7.87
2022-09-18T19:41:11.160Z,7.55
2022-09-18T19:43:38.081Z,7.50
2022-09-18T19:46:07.867Z,7.33
2022-09-18T19:48:34.842Z,7.20
2022-09-18T19:51:01.694Z,7.27
2022-09-18T19:53:28.830Z,7.16
2022-09-18T19:55:55.671Z,7.01
2022-09-18T19:58:23.049Z,7.24
2022-09-18T20:00:50.790Z,7.06
2022-09-18T20:03:17.715Z,6.95
2022-09-18T20:05:44.864Z,7.07
2022-09-18T20:08:11.930Z,6.86
2022-09-18T20:10:39.781Z,6.55
2022-09-18T20:13:06.979Z,6.45
2022-09-18T20:15:33.953Z,6.45
2022-09-18T20:18:00.871Z,6.49
2022-09-18T20:20:27.999Z,6.50
2022-09-18T20:22:55.520Z,6.37
2022-09-18T20:25:23.064Z,6.55
2022-09-18T20:27:49.867Z,6.60
2022-09-18T20:30:17.938Z,6.68
2022-09-18T20:32:44.722Z,6.80
2022-09-18T20:35:11.524Z,6.68
2022-09-18T20:37:38.654Z,6.69
2022-09-18T20:40:06.562Z,6.61
2022-09-18T20:42:34.605Z,6.70
2022-09-18T20:45:02.369Z,6.54
2022-09-18T20:47:36.387Z,6.75
2022-09-18T20:50:06.868Z,6.77
2022-09-18T20:52:36.368Z,6.61
2022-09-18T20:55:08.806Z,6.80
2022-09-18T20:57:36.651Z,6.72
2022-09-18T21:00:07.883Z,6.58
2022-09-18T21:02:38.209Z,6.44
2022-09-18T21:05:08.609Z,6.55
2022-09-18T21:07:35.409Z,6.40
2022-09-18T21:10:02.511Z,6.53
2022-09-18T21:12:38.298Z,6.61
2022-09-18T21:15:06.794Z,6.67
2022-09-18T21:17:33.755Z,6.78
2022-09-18T21:20:02.024Z,6.77
2022-09-18T21:22:30.406Z,6.71
2022-09-18T21:24:58.679Z,6.70
2022-09-18T21:27:25.935Z,6.75
2022-09-18T21:29:52.730Z,6.70
2022-09-18T21:32:19.858Z,6.60
2022-09-18T21:34:47.615Z,6.71
2022-09-18T21:37:14.633Z,6.78
2022-09-18T21:39:44.132Z,6.95
2022-09-18T21:42:11.030Z,6.96
2022-09-18T21:44:37.801Z,6.74
2022-09-18T21:47:08.354Z,6.95
2022-09-18T21:49:35.217Z,6.99
2022-09-18T21:52:03.655Z,7.09
2022-09-18T21:54:32.010Z,7.17
2022-09-18T21:56:58.977Z,7.12
2022-09-18T21:59:27.349Z,7.21
2022-09-18T22:01:55.305Z,7.29
2022-09-18T22:04:27.104Z,7.37
2022-09-18T22:06:55.639Z,7.28
2022-09-18T22:09:23.891Z,7.12
2022-09-18T22:11:51.308Z,6.93
2022-09-18T22:14:22.779Z,6.98
2022-09-18T22:16:50.369Z,7.12
2022-09-18T22:19:17.301Z,7.14
2022-09-18T22:21:45.300Z,7.05
2022-09-18T22:24:16.987Z,6.84
2022-09-18T22:26:46.254Z,7.10
2022-09-18T22:29:34.459Z,6.99
2022-09-18T22:32:01.573Z,7.16
2022-09-18T22:34:30.489Z,7.18
2022-09-18T22:37:00.515Z,7.24
2022-09-18T22:39:27.623Z,7.36
2022-09-18T22:41:55.024Z,7.21
2022-09-18T22:44:22.752Z,7.07
2022-09-18T22:46:52.109Z,7.14
2022-09-18T22:49:19.631Z,7.14
2022-09-18T22:51:46.823Z,7.26
2022-09-18T22:54:15.151Z,7.24
2022-09-18T22:56:46.516Z,7.23
2022-09-18T22:59:14.205Z,7.14
2022-09-18T23:01:49.085Z,6.89
2022-09-18T23:04:18.625Z,7.01
2022-09-18T23:06:46.680Z,7.21
2022-09-18T23:09:13.965Z,7.11
2022-09-18T23:11:41.794Z,7.45
2022-09-18T23:14:12.210Z,7.57
2022-09-18T23:16:39.377Z,7.59
2022-09-18T23:19:10.058Z,7.63
2022-09-18T23:21:39.600Z,7.65
2022-09-18T23:24:09.053Z,7.72
2022-09-18T23:26:37.989Z,7.78
2022-09-18T23:29:06.651Z,7.74
2022-09-18T23:31:34.649Z,7.85
2022-09-18T23:34:02.810Z,7.90
2022-09-18T23:36:36.989Z,7.90
2022-09-18T23:39:07.345Z,7.91
2022-09-18T23:41:34.689Z,7.73
2022-09-18T23:44:02.069Z,7.74
2022-09-18T23:46:29.089Z,7.79
2022-09-18T23:48:55.931Z,7.78
2022-09-18T23:51:30.118Z,7.85
2022-09-18T23:53:58.195Z,7.75
2022-09-18T23:56:25.038Z,7.79
2022-09-18T23:58:55.482Z,7.77
